createdAt,value
2022-10-08T00:01:43.530Z,8.50
2022-10-08T00:04:12.266Z,11.20
2022-10-08T00:06:40.649Z,13.70
2022-10-08T00:09:08.838Z,9.87
2022-10-08T00:11:37.943Z,8.57
2022-10-08T00:14:07.665Z,10.97
2022-10-08T00:16:36.700Z,10.73
2022-10-08T00:19:06.085Z,13.33
2022-10-08T00:21:35.574Z,11.70
2022-10-08T00:24:04.631Z,13.67
2022-10-08T00:26:34.032Z,12.50
2022-10-08T00:29:02.973Z,9.97
2022-10-08T00:31:33.592Z,10.93
2022-10-08T00:34:02.658Z,10.20
2022-10-08T00:36:32.187Z,14.97
2022-10-08T00:39:00.685Z,11.27
2022-10-08T00:41:29.771Z,14.47
2022-10-08T00:43:59.036Z,11.93
2022-10-08T00:46:29.126Z,10.50
2022-10-08T00:49:01.803Z,14.50
2022-10-08T00:51:30.031Z,16.37
2022-10-08T00:53:58.103Z,12.83
2022-10-08T00:56:26.326Z,13.07
2022-10-08T00:58:54.447Z,12.50
2022-10-08T01:01:23.104Z,11.53
2022-10-08T01:03:51.223Z,10.33
2022-10-08T01:06:28.943Z,13.97
2022-10-08T01:09:00.877Z,9.13
2022-10-08T01:11:38.180Z,12.13
2022-10-08T01:14:08.598Z,10.80
2022-10-08T01:16:40.512Z,12.60
2022-10-08T01:19:17.267Z,12.30
2022-10-08T01:21:48.946Z,12.17
2022-10-08T01:24:47.560Z,12.43
2022-10-08T01:27:22.640Z,11.93
2022-10-08T01:29:50.781Z,14.73
2022-10-08T01:32:20.490Z,13.10
2022-10-08T01:34:49.249Z,12.23
2022-10-08T01:37:19.841Z,12.63
2022-10-08T01:39:48.078Z,12.10
2022-10-08T01:42:16.446Z,13.60
2022-10-08T01:44:46.465Z,13.23
2022-10-08T01:47:16.764Z,11.13
2022-10-08T01:49:46.578Z,16.10
2022-10-08T01:52:18.851Z,15.13
2022-10-08T01:54:46.943Z,10.10
2022-10-08T01:57:15.016Z,13.97
2022-10-08T01:59:45.705Z,15.57
2022-10-08T02:02:17.063Z,13.50
2022-10-08T02:04:45.128Z,13.00
2022-10-08T02:07:15.747Z,10.47
2022-10-08T02:09:44.923Z,16.90
2022-10-08T02:12:12.995Z,11.30
2022-10-08T02:14:42.727Z,10.63
2022-10-08T02:17:21.269Z,11.97
2022-10-08T02:19:53.045Z,10.90
2022-10-08T02:22:23.146Z,13.23
2022-10-08T02:24:53.257Z,16.17
2022-10-08T02:27:25.851Z,10.63
2022-10-08T02:29:59.684Z,12.50
2022-10-08T02:32:32.567Z,9.27
2022-10-08T02:35:03.202Z,13.63
2022-10-08T02:37:34.394Z,13.83
2022-10-08T02:40:04.404Z,13.17
2022-10-08T02:42:32.682Z,12.77
2022-10-08T02:45:01.959Z,11.17
2022-10-08T02:47:32.605Z,14.13
2022-10-08T02:50:02.712Z,11.63
2022-10-08T02:52:35.371Z,17.23
2022-10-08T02:55:03.466Z,11.70
2022-10-08T02:57:33.589Z,13.83
2022-10-08T03:00:01.677Z,13.40
2022-10-08T03:02:36.923Z,12.20
2022-10-08T03:05:06.436Z,13.80
2022-10-08T03:07:35.678Z,12.67
2022-10-08T03:10:05.524Z,10.80
2022-10-08T03:12:33.615Z,12.13
2022-10-08T03:15:01.716Z,14.27
2022-10-08T03:17:33.099Z,18.60
2022-10-08T03:20:03.222Z,13.83
2022-10-08T03:22:31.505Z,12.37
2022-10-08T03:24:59.618Z,13.83
2022-10-08T03:27:27.692Z,13.50
2022-10-08T03:29:58.014Z,16.77
2022-10-08T03:32:26.126Z,16.30
2022-10-08T03:34:55.598Z,15.00
2022-10-08T03:37:23.741Z,15.57
2022-10-08T03:39:51.870Z,16.33
2022-10-08T03:42:20.130Z,16.80
2022-10-08T03:44:48.203Z,11.60
2022-10-08T03:47:16.237Z,14.07
2022-10-08T03:49:44.362Z,17.53
2022-10-08T03:52:13.821Z,15.03
2022-10-08T03:54:42.170Z,16.07
2022-10-08T03:57:10.226Z,20.07
2022-10-08T03:59:38.269Z,14.10
2022-10-08T04:02:06.606Z,19.03
2022-10-08T04:04:34.822Z,17.33
2022-10-08T04:07:02.915Z,17.10
2022-10-08T04:09:32.616Z,15.10
2022-10-08T04:12:00.695Z,32.93
2022-10-08T04:14:28.807Z,16.43
2022-10-08T04:16:56.885Z,19.00
2022-10-08T04:19:25.011Z,24.13
2022-10-08T04:21:53.101Z,20.43
2022-10-08T04:24:21.441Z,17.60
2022-10-08T04:26:50.982Z,21.43
2022-10-08T04:29:19.141Z,23.40
2022-10-08T04:31:47.179Z,19.00
2022-10-08T04:34:15.219Z,17.57
2022-10-08T04:36:43.261Z,21.73
2022-10-08T04:39:11.701Z,23.47
2022-10-08T04:41:39.764Z,25.10
2022-10-08T04:44:09.214Z,22.33
2022-10-08T04:46:37.288Z,25.17
2022-10-08T04:49:05.358Z,24.37
2022-10-08T04:51:33.710Z,19.03
2022-10-08T04:54:01.810Z,21.60
2022-10-08T04:56:30.916Z,18.60
2022-10-08T04:58:59.223Z,19.03
2022-10-08T05:01:29.035Z,21.30
2022-10-08T05:03:58.400Z,20.33
2022-10-08T05:06:28.231Z,20.13
2022-10-08T05:08:56.378Z,20.33
2022-10-08T05:11:24.921Z,20.70
2022-10-08T05:13:53.370Z,17.00
2022-10-08T05:16:21.754Z,19.00
2022-10-08T05:18:52.183Z,19.87
2022-10-08T05:21:21.181Z,28.30
2022-10-08T05:23:49.514Z,16.47
2022-10-08T05:26:18.681Z,20.97
2022-10-08T05:28:48.403Z,16.93
2022-10-08T05:31:16.730Z,18.37
2022-10-08T05:33:45.102Z,19.60
2022-10-08T05:36:16.932Z,14.83
2022-10-08T05:38:45.025Z,16.17
2022-10-08T05:41:14.041Z,15.97
2022-10-08T05:43:42.135Z,26.03
2022-10-08T05:46:10.706Z,16.13
2022-10-08T05:48:38.843Z,14.30
2022-10-08T05:51:07.793Z,15.13
2022-10-08T05:53:37.798Z,17.10
2022-10-08T05:56:06.905Z,15.03
2022-10-08T05:58:35.321Z,18.43
2022-10-08T06:01:04.406Z,22.07
2022-10-08T06:03:32.593Z,15.13
2022-10-08T06:06:02.908Z,21.23
2022-10-08T06:08:30.977Z,14.33
2022-10-08T06:11:00.498Z,17.87
2022-10-08T06:13:28.999Z,19.07
2022-10-08T06:15:57.379Z,16.97
2022-10-08T06:18:25.571Z,22.23
2022-10-08T06:20:53.683Z,16.47
2022-10-08T06:23:21.842Z,16.07
2022-10-08T06:25:49.890Z,19.57
2022-10-08T06:28:19.679Z,18.90
2022-10-08T06:30:47.759Z,13.60
2022-10-08T06:33:16.947Z,17.03
2022-10-08T06:35:45.022Z,12.57
2022-10-08T06:38:13.496Z,17.83
2022-10-08T06:40:41.833Z,20.73
2022-10-08T06:43:12.090Z,27.50
2022-10-08T06:45:41.639Z,16.50
2022-10-08T06:48:09.844Z,24.57
2022-10-08T06:50:38.117Z,18.17
2022-10-08T06:53:06.467Z,17.03
2022-10-08T06:55:34.619Z,17.73
2022-10-08T06:58:02.774Z,15.03
2022-10-08T07:00:30.887Z,23.53
2022-10-08T07:03:00.405Z,19.10
2022-10-08T07:05:28.494Z,13.37
2022-10-08T07:07:56.524Z,14.23
2022-10-08T07:10:27.546Z,16.83
2022-10-08T07:12:57.891Z,16.07
2022-10-08T07:15:25.987Z,11.97
2022-10-08T07:17:54.037Z,18.73
2022-10-08T07:20:23.547Z,13.53
2022-10-08T07:22:51.893Z,14.17
2022-10-08T07:25:19.966Z,11.80
2022-10-08T07:27:48.104Z,19.50
2022-10-08T07:30:16.215Z,18.20
2022-10-08T07:32:44.529Z,18.47
2022-10-08T07:35:13.036Z,16.50
2022-10-08T07:37:44.364Z,9.53
2022-10-08T07:40:12.574Z,11.23
2022-10-08T07:42:40.638Z,10.83
2022-10-08T07:45:09.715Z,13.23
2022-10-08T07:47:37.755Z,8.90
2022-10-08T07:50:06.717Z,14.60
2022-10-08T07:52:34.785Z,13.27
2022-10-08T07:55:04.348Z,9.30
2022-10-08T07:57:32.401Z,10.00
2022-10-08T08:00:00.490Z,10.43
2022-10-08T08:02:28.896Z,9.60
2022-10-08T08:04:57.042Z,14.77
2022-10-08T08:07:25.121Z,10.27
2022-10-08T08:09:53.253Z,11.10
2022-10-08T08:12:22.688Z,16.07
2022-10-08T08:14:50.741Z,10.03
2022-10-08T08:17:19.070Z,8.07
2022-10-08T08:19:47.109Z,9.13
2022-10-08T08:22:15.209Z,11.43
2022-10-08T08:24:43.245Z,11.50
2022-10-08T08:27:11.320Z,10.20
2022-10-08T08:29:41.234Z,9.53
2022-10-08T08:32:09.879Z,14.43
2022-10-08T08:34:38.710Z,10.90
2022-10-08T08:37:06.775Z,9.70
2022-10-08T08:39:34.843Z,16.97
2022-10-08T08:42:23.881Z,11.80
2022-10-08T08:44:57.614Z,12.27
2022-10-08T08:47:27.065Z,10.17
2022-10-08T08:49:56.521Z,12.23
2022-10-08T08:52:25.914Z,12.10
2022-10-08T08:54:54.780Z,10.13
2022-10-08T08:57:32.938Z,11.10
2022-10-08T09:00:05.199Z,10.60
2022-10-08T09:02:35.760Z,11.83
2022-10-08T09:05:06.012Z,11.00
2022-10-08T09:07:38.161Z,10.73
2022-10-08T09:10:09.526Z,10.80
2022-10-08T09:12:38.497Z,11.43
2022-10-08T09:15:15.292Z,9.20
2022-10-08T09:17:43.302Z,9.10
2022-10-08T09:20:14.274Z,10.03
2022-10-08T09:22:42.298Z,6.67
2022-10-08T09:25:14.366Z,16.33
2022-10-08T09:27:49.981Z,6.37
2022-10-08T09:30:40.529Z,7.53
2022-10-08T09:33:19.537Z,8.70
2022-10-08T09:35:48.253Z,7.70
2022-10-08T09:38:21.336Z,9.27
2022-10-08T09:41:01.170Z,6.50
2022-10-08T09:43:29.845Z,7.50
2022-10-08T09:45:59.309Z,7.03
2022-10-08T09:48:28.261Z,6.23
2022-10-08T09:50:58.817Z,7.63
2022-10-08T09:53:30.034Z,5.57
2022-10-08T09:55:59.825Z,6.03
2022-10-08T09:58:27.899Z,5.03
2022-10-08T10:01:03.905Z,7.53
2022-10-08T10:03:32.479Z,5.13
2022-10-08T10:06:00.998Z,6.43
2022-10-08T10:08:50.035Z,5.13
2022-10-08T10:11:22.125Z,6.03
2022-10-08T10:13:50.951Z,7.57
2022-10-08T10:16:22.956Z,5.03
2022-10-08T10:18:54.338Z,7.07
2022-10-08T10:21:25.953Z,5.73
2022-10-08T10:23:59.079Z,10.20
2022-10-08T10:26:28.681Z,8.63
2022-10-08T10:28:57.608Z,7.30
2022-10-08T10:31:28.936Z,5.20
2022-10-08T10:33:59.002Z,8.03
2022-10-08T10:36:28.234Z,5.23
2022-10-08T10:38:57.498Z,7.33
2022-10-08T10:41:28.504Z,5.40
2022-10-08T10:44:00.434Z,7.67
2022-10-08T10:46:33.170Z,5.23
2022-10-08T10:49:01.450Z,4.33
2022-10-08T10:51:53.495Z,6.70
2022-10-08T10:54:45.268Z,4.40
2022-10-08T10:57:27.945Z,4.33
2022-10-08T11:00:00.238Z,7.17
2022-10-08T11:02:32.253Z,4.47
2022-10-08T11:05:05.627Z,8.80
2022-10-08T11:08:06.421Z,5.57
2022-10-08T11:10:41.337Z,5.70
2022-10-08T11:13:17.938Z,5.80
2022-10-08T11:15:47.750Z,8.20
2022-10-08T11:18:21.915Z,4.90
2022-10-08T11:20:56.775Z,6.33
2022-10-08T11:23:34.336Z,5.50
2022-10-08T11:26:21.403Z,11.27
2022-10-08T11:28:54.769Z,7.77
2022-10-08T11:31:27.843Z,6.43
2022-10-08T11:33:57.322Z,6.80
2022-10-08T11:36:32.861Z,5.97
2022-10-08T11:39:04.849Z,7.70
2022-10-08T11:41:33.856Z,4.27
2022-10-08T11:44:02.642Z,5.00
2022-10-08T11:46:31.517Z,9.37
2022-10-08T11:49:01.764Z,8.57
2022-10-08T11:51:39.329Z,4.07
2022-10-08T11:54:18.902Z,5.63
2022-10-08T11:56:47.908Z,6.83
2022-10-08T11:59:36.703Z,8.47
2022-10-08T12:02:05.791Z,6.53
2022-10-08T12:04:36.392Z,6.90
2022-10-08T12:07:23.025Z,16.03
2022-10-08T12:10:22.435Z,8.37
2022-10-08T12:13:24.635Z,5.60
2022-10-08T12:15:57.259Z,6.47
2022-10-08T12:18:52.517Z,5.07
2022-10-08T12:21:51.078Z,3.07
2022-10-08T12:24:58.173Z,9.83
2022-10-08T12:27:41.296Z,5.53
2022-10-08T12:30:11.103Z,4.93
2022-10-08T12:32:55.884Z,8.43
2022-10-08T12:35:25.954Z,11.63
2022-10-08T12:38:04.818Z,14.00
2022-10-08T12:40:38.517Z,10.97
2022-10-08T12:43:18.194Z,6.27
2022-10-08T12:45:56.134Z,5.43
2022-10-08T12:48:33.883Z,3.57
2022-10-08T12:51:13.602Z,3.00
2022-10-08T12:53:46.022Z,5.47
2022-10-08T12:56:18.939Z,7.30
2022-10-08T12:58:47.446Z,5.17
2022-10-08T13:01:16.507Z,3.60
2022-10-08T13:03:44.686Z,4.40
2022-10-08T13:06:17.649Z,3.83
2022-10-08T13:08:49.990Z,8.23
2022-10-08T13:11:18.029Z,3.97
2022-10-08T13:13:49.116Z,3.70
2022-10-08T13:16:18.735Z,5.30
2022-10-08T13:18:48.264Z,5.10
2022-10-08T13:21:36.724Z,4.90
2022-10-08T13:24:22.124Z,5.23
2022-10-08T13:26:50.911Z,5.20
2022-10-08T13:29:30.109Z,6.93
2022-10-08T13:31:59.589Z,5.80
2022-10-08T13:34:29.411Z,5.00
2022-10-08T13:36:58.814Z,3.73
2022-10-08T13:39:29.884Z,5.50
2022-10-08T13:41:59.497Z,3.87
2022-10-08T13:44:27.637Z,3.97
2022-10-08T13:47:00.033Z,3.90
2022-10-08T13:49:29.613Z,5.33
2022-10-08T13:51:57.727Z,5.80
2022-10-08T13:54:26.450Z,4.10
2022-10-08T13:56:56.058Z,2.73
2022-10-08T13:59:29.608Z,3.93
2022-10-08T14:01:59.075Z,2.87
2022-10-08T14:04:27.233Z,4.33
2022-10-08T14:06:55.953Z,4.57
2022-10-08T14:09:25.174Z,7.40
2022-10-08T14:11:56.322Z,3.50
2022-10-08T14:14:26.218Z,6.00
2022-10-08T14:16:55.942Z,2.97
2022-10-08T14:19:24.010Z,7.77
2022-10-08T14:21:52.882Z,4.90
2022-10-08T14:24:30.396Z,8.73
2022-10-08T14:27:08.379Z,6.37
2022-10-08T14:29:40.426Z,4.80
2022-10-08T14:32:09.573Z,3.90
2022-10-08T14:34:37.882Z,5.27
2022-10-08T14:37:07.773Z,4.30
2022-10-08T14:39:36.368Z,5.03
2022-10-08T14:42:04.768Z,7.60
2022-10-08T14:44:34.744Z,3.83
2022-10-08T14:47:04.217Z,2.80
2022-10-08T14:49:32.329Z,3.70
2022-10-08T14:52:00.440Z,3.03
2022-10-08T14:54:29.702Z,7.57
2022-10-08T14:56:57.782Z,4.97
2022-10-08T14:59:26.070Z,6.83
2022-10-08T15:01:54.769Z,3.50
2022-10-08T15:04:24.320Z,3.63
2022-10-08T15:06:52.352Z,9.77
2022-10-08T15:09:20.786Z,5.40
2022-10-08T15:11:49.138Z,5.37
2022-10-08T15:14:17.280Z,6.93
2022-10-08T15:16:45.403Z,5.97
2022-10-08T15:19:13.814Z,5.90
2022-10-08T15:21:43.335Z,4.30
2022-10-08T15:24:11.742Z,4.60
2022-10-08T15:26:39.906Z,4.73
2022-10-08T15:29:12.346Z,5.60
2022-10-08T15:31:44.594Z,3.37
2022-10-08T15:34:16.543Z,4.17
2022-10-08T15:36:46.338Z,4.90
2022-10-08T15:39:15.214Z,6.87
2022-10-08T15:41:44.275Z,4.93
2022-10-08T15:44:15.612Z,3.13
2022-10-08T15:46:43.758Z,5.20
2022-10-08T15:49:12.899Z,4.83
2022-10-08T15:51:41.635Z,3.90
2022-10-08T15:54:11.225Z,3.07
2022-10-08T15:56:39.690Z,4.03
2022-10-08T15:59:07.794Z,4.53
2022-10-08T16:01:38.983Z,3.60
2022-10-08T16:04:08.006Z,3.47
2022-10-08T16:06:36.879Z,7.00
2022-10-08T16:09:05.149Z,6.23
2022-10-08T16:11:35.343Z,6.33
2022-10-08T16:14:04.026Z,4.47
2022-10-08T16:16:32.241Z,4.80
2022-10-08T16:19:01.352Z,6.13
2022-10-08T16:21:30.225Z,4.20
2022-10-08T16:23:58.364Z,7.77
2022-10-08T16:26:26.617Z,7.57
2022-10-08T16:28:57.847Z,5.60
2022-10-08T16:31:26.269Z,7.70
2022-10-08T16:33:56.064Z,9.60
2022-10-08T16:36:24.193Z,3.70
2022-10-08T16:38:52.273Z,10.27
2022-10-08T16:41:21.214Z,4.17
2022-10-08T16:43:50.229Z,6.67
2022-10-08T16:46:20.893Z,3.97
2022-10-08T16:48:52.355Z,10.47
2022-10-08T16:51:20.479Z,7.80
2022-10-08T16:53:49.323Z,6.00
2022-10-08T16:56:17.439Z,5.07
2022-10-08T16:58:45.750Z,6.30
2022-10-08T17:01:13.882Z,4.87
2022-10-08T17:03:43.392Z,6.63
2022-10-08T17:06:11.792Z,5.13
2022-10-08T17:08:39.966Z,4.47
2022-10-08T17:11:08.797Z,4.77
2022-10-08T17:13:41.052Z,6.80
2022-10-08T17:16:09.254Z,12.53
2022-10-08T17:18:37.413Z,5.90
2022-10-08T17:21:07.364Z,5.57
2022-10-08T17:23:38.107Z,2.23
2022-10-08T17:26:07.741Z,6.33
2022-10-08T17:28:36.746Z,5.37
2022-10-08T17:31:05.710Z,6.77
2022-10-08T17:33:35.940Z,7.67
2022-10-08T17:36:07.177Z,8.03
2022-10-08T17:38:35.420Z,7.90
2022-10-08T17:41:12.169Z,10.60
2022-10-08T17:43:40.234Z,4.50
2022-10-08T17:46:09.803Z,3.07
2022-10-08T17:48:37.877Z,12.10
2022-10-08T17:51:08.024Z,3.20
2022-10-08T17:53:36.168Z,3.27
2022-10-08T17:56:05.295Z,5.07
2022-10-08T17:58:33.576Z,9.77
2022-10-08T18:01:07.065Z,4.40
2022-10-08T18:03:35.353Z,4.97
2022-10-08T18:06:03.736Z,4.20
2022-10-08T18:08:33.244Z,5.37
2022-10-08T18:11:02.876Z,8.27
2022-10-08T18:13:30.949Z,4.40
2022-10-08T18:16:03.221Z,3.70
2022-10-08T18:18:31.461Z,6.73
2022-10-08T18:21:00.442Z,3.97
2022-10-08T18:23:29.294Z,9.73
2022-10-08T18:26:07.676Z,7.50
2022-10-08T18:28:36.033Z,5.77
2022-10-08T18:31:13.451Z,8.67
2022-10-08T18:33:43.791Z,7.23
2022-10-08T18:36:12.759Z,9.37
2022-10-08T18:38:40.977Z,8.73
2022-10-08T18:41:17.455Z,10.87
2022-10-08T18:43:46.051Z,11.93
2022-10-08T18:46:14.459Z,9.63
2022-10-08T18:48:42.710Z,11.73
2022-10-08T18:51:11.664Z,6.77
2022-10-08T18:53:40.860Z,9.97
2022-10-08T18:56:09.754Z,6.10
2022-10-08T18:58:39.241Z,9.67
2022-10-08T19:01:07.623Z,11.17
2022-10-08T19:03:36.032Z,12.13
2022-10-08T19:06:07.372Z,6.63
2022-10-08T19:08:35.547Z,5.57
2022-10-08T19:11:10.365Z,6.90
2022-10-08T19:13:40.007Z,6.40
2022-10-08T19:16:13.354Z,5.97
2022-10-08T19:18:43.075Z,5.00
2022-10-08T19:21:11.436Z,7.53
2022-10-08T19:23:39.576Z,5.10
2022-10-08T19:26:08.046Z,7.27
2022-10-08T19:28:37.418Z,5.40
2022-10-08T19:31:14.718Z,7.67
2022-10-08T19:33:43.030Z,4.07
2022-10-08T19:36:11.351Z,6.77
2022-10-08T19:38:39.474Z,12.03
2022-10-08T19:41:08.153Z,6.13
2022-10-08T19:43:36.547Z,9.60
2022-10-08T19:46:04.887Z,5.37
2022-10-08T19:48:34.758Z,4.67
2022-10-08T19:51:05.116Z,3.90
2022-10-08T19:53:33.312Z,3.67
2022-10-08T19:56:01.675Z,4.43
2022-10-08T19:58:30.070Z,5.03
2022-10-08T20:01:01.417Z,5.70
2022-10-08T20:03:29.624Z,5.37
2022-10-08T20:06:02.256Z,4.97
2022-10-08T20:08:30.527Z,7.50
2022-10-08T20:10:59.478Z,5.70
2022-10-08T20:13:27.873Z,10.07
2022-10-08T20:15:56.063Z,9.80
2022-10-08T20:18:24.219Z,6.47
2022-10-08T20:21:02.777Z,6.47
2022-10-08T20:23:30.978Z,5.10
2022-10-08T20:26:09.624Z,11.07
2022-10-08T20:28:37.768Z,6.50
2022-10-08T20:31:10.734Z,7.37
2022-10-08T20:33:40.698Z,6.43
2022-10-08T20:36:10.457Z,6.70
2022-10-08T20:38:38.659Z,7.80
2022-10-08T20:41:07.314Z,5.73
2022-10-08T20:43:36.063Z,6.73
2022-10-08T20:46:04.543Z,9.40
2022-10-08T20:48:33.273Z,6.50
2022-10-08T20:51:04.840Z,5.27
2022-10-08T20:53:34.597Z,4.57
2022-10-08T20:56:05.769Z,7.10
2022-10-08T20:58:33.904Z,5.87
2022-10-08T21:01:06.231Z,4.63
2022-10-08T21:03:36.154Z,4.57
2022-10-08T21:06:04.560Z,6.30
2022-10-08T21:08:36.567Z,10.33
2022-10-08T21:11:04.866Z,8.63
2022-10-08T21:13:33.077Z,9.03
2022-10-08T21:16:02.366Z,11.10
2022-10-08T21:18:30.662Z,6.90
2022-10-08T21:21:02.578Z,9.20
2022-10-08T21:23:30.782Z,6.90
2022-10-08T21:26:08.784Z,7.40
2022-10-08T21:28:37.100Z,7.63
2022-10-08T21:31:05.522Z,13.67
2022-10-08T21:33:36.029Z,4.97
2022-10-08T21:36:04.833Z,18.60
2022-10-08T21:38:32.928Z,8.53
2022-10-08T21:41:02.272Z,12.33
2022-10-08T21:43:32.182Z,6.07
2022-10-08T21:46:01.611Z,10.20
2022-10-08T21:48:30.606Z,6.13
2022-10-08T21:50:59.633Z,6.47
2022-10-08T21:53:27.800Z,5.07
2022-10-08T21:55:56.886Z,10.03
2022-10-08T21:58:25.596Z,5.03
2022-10-08T22:00:55.218Z,5.13
2022-10-08T22:03:23.654Z,8.27
2022-10-08T22:05:52.918Z,5.27
2022-10-08T22:08:21.073Z,5.93
2022-10-08T22:10:49.148Z,7.37
2022-10-08T22:13:17.349Z,9.73
2022-10-08T22:15:54.813Z,5.23
2022-10-08T22:18:22.982Z,5.70
2022-10-08T22:20:51.302Z,7.30
2022-10-08T22:23:19.526Z,11.40
2022-10-08T22:25:53.336Z,6.33
2022-10-08T22:28:21.719Z,8.67
2022-10-08T22:30:50.310Z,8.67
2022-10-08T22:33:20.030Z,8.03
2022-10-08T22:35:48.179Z,7.73
2022-10-08T22:38:16.430Z,7.67
2022-10-08T22:40:45.113Z,6.47
2022-10-08T22:43:16.455Z,5.47
2022-10-08T22:45:45.300Z,9.13
2022-10-08T22:48:13.383Z,8.07
2022-10-08T22:50:42.875Z,8.67
2022-10-08T22:53:10.986Z,7.43
2022-10-08T22:55:41.158Z,7.00
2022-10-08T22:58:09.598Z,7.20
2022-10-08T23:00:37.676Z,6.93
2022-10-08T23:03:05.901Z,6.33
2022-10-08T23:05:34.075Z,9.13
2022-10-08T23:08:03.794Z,5.47
2022-10-08T23:10:31.938Z,6.37
2022-10-08T23:13:00.297Z,5.87
2022-10-08T23:15:28.373Z,6.83
2022-10-08T23:17:56.481Z,10.87
2022-10-08T23:20:24.644Z,5.33
2022-10-08T23:22:52.671Z,6.63
2022-10-08T23:25:22.436Z,8.63
2022-10-08T23:27:50.493Z,6.77
2022-10-08T23:30:41.495Z,7.43
2022-10-08T23:33:06.742Z,8.73
2022-10-08T23:35:34.823Z,10.47
2022-10-08T23:38:02.818Z,5.30
2022-10-08T23:40:32.613Z,9.40
2022-10-08T23:43:00.697Z,7.87
2022-10-08T23:45:28.720Z,7.33
2022-10-08T23:47:56.755Z,6.77
2022-10-08T23:50:24.802Z,7.47
2022-10-08T23:52:53.122Z,5.90
2022-10-08T23:55:21.165Z,8.63
2022-10-08T23:57:50.549Z,6.00
